IST,Max TemperatureF,Mean TemperatureF,Min TemperatureF,Max Dew PointF,MeanDew PointF,Min DewpointF,Max Humidity, Mean Humidity, Min Humidity, Max Sea Level PressureIn, Mean Sea Level PressureIn, Min Sea Level PressureIn, Max VisibilityMiles, Mean VisibilityMiles, Min VisibilityMiles, Max Wind SpeedMPH, Mean Wind SpeedMPH, Max Gust SpeedMPH,PrecipitationIn, CloudCover, Events, WindDirDegrees
2012-6-1,63,58,53,57,53,48,96,83,68,30.13,30.10,30.04,19,7,6,9,5,,0.00,6,,110
2012-6-2,60,56,51,54,51,46,100,85,70,30.06,29.92,29.74,19,5,2,16,8,,0.03,6,Rain,74
2012-6-3,53,50,48,52,47,43,100,92,76,29.95,29.78,29.68,16,5,2,23,18,38,0.08,7,Rain,63
2012-6-4,56,50,43,46,41,34,100,71,38,30.09,30.04,29.95,16,6,6,11,6,,0.00,4,,89
2012-6-5,54,49,44,52,48,39,100,91,63,30.01,29.78,29.53,19,6,2,17,8,,0.12,6,Rain,132
2012-6-6,64,58,50,54,51,46,100,85,53,29.53,29.46,29.44,11,6,0,14,6,,0.00,6,Fog-Rain,242
2012-6-7,56,52,48,55,53,48,100,98,88,29.44,29.24,29.03,7,4,1,20,10,28,0.51,7,Rain,97
2012-6-8,55,52,48,55,51,45,100,95,85,29.62,29.28,29.03,12,5,2,31,15,45,0.39,6,Rain,295
2012-6-9,62,53,44,48,45,43,93,77,48,29.83,29.75,29.62,19,7,6,25,20,,0.00,6,Rain,272
2012-6-10,62,52,42,50,46,39,100,77,42,29.83,29.77,29.71,6,6,6,12,5,,0.00,6,,82
2012-6-11,62,56,49,52,48,45,100,77,50,29.77,29.72,29.68,12,6,2,10,6,,0.00,5,,92
2012-6-12,56,52,48,50,47,45,100,81,61,29.95,29.86,29.80,12,6,6,10,5,,0.02,6,Rain,104
2012-6-13,57,53,49,52,49,46,100,86,67,29.99,29.97,29.95,19,7,6,11,5,,0.00,5,Rain,103
2012-6-14,56,53,50,52,50,46,100,89,66,29.98,29.85,29.62,19,6,5,26,13,,0.08,6,Rain,124
2012-6-15,59,54,50,55,52,50,100,93,77,29.59,29.44,29.36,14,6,4,25,21,,0.04,6,Rain,131
2012-6-16,60,56,51,57,52,46,100,89,77,29.77,29.45,29.30,12,6,3,25,11,31,0.12,6,Rain,249
2012-6-17,57,52,46,48,46,41,94,79,55,30.02,29.96,29.77,19,7,6,16,11,,0.03,5,Rain,248
2012-6-18,61,50,38,52,47,39,100,83,42,30.01,29.96,29.92,11,6,1,17,5,26,0.04,6,Fog-Rain-Thunderstorm,162
2012-6-19,61,53,45,50,47,43,94,76,52,30.04,30.02,29.98,6,6,6,14,8,,0.00,4,,210
2012-6-20,62,52,41,52,48,41,100,80,59,30.06,30.00,29.86,6,6,6,18,6,,0.04,6,Rain,120
2012-6-21,58,54,50,54,53,50,100,97,88,29.86,29.62,29.53,12,5,2,18,9,,0.20,6,Rain,84
2012-6-22,61,56,51,54,50,46,100,86,59,29.86,29.65,29.53,19,6,3,34,16,50,0.08,6,Rain,272
2012-6-23,62,56,50,52,50,46,94,83,52,29.95,29.90,29.83,19,7,6,22,18,,0.01,6,Rain,228
2012-6-24,65,58,48,55,51,46,100,83,52,30.01,29.87,29.77,19,7,6,17,10,,0.04,4,Rain,288
2012-6-25,61,52,44,50,47,45,100,79,51,30.08,30.05,30.01,19,6,6,14,8,,0.00,4,,258
2012-6-26,71,62,52,63,57,48,100,84,66,30.06,29.99,29.95,19,7,5,16,11,,0.00,6,Rain,183
2012-6-27,73,66,60,63,61,55,100,83,62,30.00,29.92,29.80,19,6,2,17,9,,0.20,6,Rain,226
2012-6-28,70,62,55,63,57,51,100,84,52,29.80,29.52,29.36,9,5,0,22,11,32,0.08,5,Fog-Rain,167
2012-6-29,66,60,54,55,53,52,100,79,59,29.47,29.34,29.24,19,7,2,24,14,38,0.00,5,Rain,216
2012-6-30,60,56,50,54,49,44,94,81,54,29.68,29.58,29.47,16,6,6,23,12,30,0.08,5,Rain,247